Time;durP1;ratioP1;P1;durP2;ratioP2;P2;SDS_P1;SDS_P2;PMS_P1;PMS_P2;Temp;Humidity;BMP_temperature;BMP_pressure;BME280_temperature;BME280_humidity;BME280_pressure;Samples;Min_cycle;Max_cycle;Signal;HPM_P1;HPM_P2
2023/12/08 00:01:50;;;;;;;11.55;6.15;;;4.00;92.10;;;;;;6114746;23;20006;-82
2023/12/08 00:04:15;;;;;;;11.55;6.30;;;4.00;92.00;;;;;;6104542;23;20481;-81
2023/12/08 00:06:41;;;;;;;11.88;6.60;;;4.00;92.10;;;;;;6102678;23;20069;-81
2023/12/08 00:09:07;;;;;;;10.63;5.78;;;4.00;92.00;;;;;;6122887;23;20054;-80
2023/12/08 00:11:32;;;;;;;9.98;5.93;;;4.00;91.80;;;;;;6095953;23;20435;-79
2023/12/08 00:13:58;;;;;;;11.10;6.30;;;3.90;91.90;;;;;;6122012;23;19998;-80
2023/12/08 00:16:24;;;;;;;11.02;6.10;;;3.90;92.00;;;;;;6097555;23;20077;-81
2023/12/08 00:18:50;;;;;;;8.15;4.55;;;4.00;92.00;;;;;;6126680;23;20086;-80
2023/12/08 00:21:16;;;;;;;9.90;5.50;;;4.00;92.10;;;;;;6101712;23;20014;-81
2023/12/08 00:23:41;;;;;;;11.30;6.28;;;4.00;92.10;;;;;;6101454;23;20021;-79
2023/12/08 00:26:07;;;;;;;9.63;5.38;;;4.00;91.80;;;;;;6101743;23;20006;-82
2023/12/08 00:28:33;;;;;;;11.73;6.45;;;4.00;91.80;;;;;;6127586;23;20010;-79
2023/12/08 00:30:58;;;;;;;10.90;6.85;;;3.90;91.90;;;;;;6127152;23;20029;-81
2023/12/08 00:33:24;;;;;;;9.93;5.88;;;3.90;91.90;;;;;;6100784;23;20002;-81
2023/12/08 00:35:50;;;;;;;10.43;6.00;;;3.90;92.00;;;;;;6100104;23;20006;-80
2023/12/08 00:38:15;;;;;;;8.82;5.15;;;3.90;92.00;;;;;;6099009;23;20040;-81
2023/12/08 00:40:41;;;;;;;10.23;6.13;;;3.90;92.10;;;;;;6101150;23;20467;-80
2023/12/08 00:43:06;;;;;;;9.73;5.10;;;3.90;92.00;;;;;;6100658;23;20552;-81
2023/12/08 00:45:32;;;;;;;12.23;6.63;;;4.00;92.00;;;;;;6127625;23;20597;-82
2023/12/08 00:47:58;;;;;;;12.60;5.90;;;3.90;91.90;;;;;;6127495;23;20067;-81
2023/12/08 00:50:23;;;;;;;8.23;4.90;;;3.90;92.00;;;;;;6127487;23;20389;-82
2023/12/08 00:52:49;;;;;;;7.82;4.90;;;4.00;92.10;;;;;;6101695;23;20008;-80
2023/12/08 00:55:14;;;;;;;8.85;4.60;;;4.00;92.00;;;;;;6100272;23;20385;-81
2023/12/08 00:57:40;;;;;;;10.38;5.10;;;4.00;92.00;;;;;;6101096;23;20008;-80
2023/12/08 01:00:06;;;;;;;7.13;4.30;;;4.00;92.00;;;;;;6101481;23;20064;-82
2023/12/08 01:02:32;;;;;;;7.47;4.07;;;4.00;92.10;;;;;;6101398;23;20002;-80
2023/12/08 01:04:57;;;;;;;8.55;4.47;;;4.00;92.10;;;;;;6127042;23;20013;-81
2023/12/08 01:07:23;;;;;;;7.47;4.07;;;4.00;92.00;;;;;;6126907;23;20002;-80
2023/12/08 01:09:49;;;;;;;8.73;4.97;;;4.00;92.10;;;;;;6101410;23;20010;-79
2023/12/08 01:12:14;;;;;;;9.23;5.25;;;3.90;91.90;;;;;;6102772;23;20128;-82
2023/12/08 01:14:40;;;;;;;8.73;5.05;;;3.90;91.90;;;;;;6129591;23;20005;-80
2023/12/08 01:17:05;;;;;;;9.57;5.57;;;3.80;91.90;;;;;;6103477;23;20038;-81
2023/12/08 01:19:31;;;;;;;10.32;5.80;;;3.80;92.10;;;;;;6102821;23;20010;-80
2023/12/08 01:21:56;;;;;;;9.73;5.40;;;3.80;92.10;;;;;;6102378;23;20158;-80
2023/12/08 01:24:22;;;;;;;8.13;4.75;;;3.80;92.00;;;;;;6127112;23;20013;-80
2023/12/08 01:26:48;;;;;;;7.05;4.07;;;3.90;92.10;;;;;;6127788;23;20049;-80
2023/12/08 01:29:13;;;;;;;8.05;4.15;;;3.90;92.20;;;;;;6123517;23;20454;-80
2023/12/08 01:31:39;;;;;;;7.47;4.60;;;3.90;92.00;;;;;;6121403;23;19998;-78
2023/12/08 01:34:06;;;;;;;9.30;5.53;;;3.90;92.00;;;;;;6095967;23;20002;-81
2023/12/08 01:36:31;;;;;;;7.28;4.30;;;3.80;92.00;;;;;;6121381;23;20068;-79
2023/12/08 01:38:57;;;;;;;9.40;4.78;;;3.80;92.10;;;;;;6096709;23;20038;-82
2023/12/08 01:41:22;;;;;;;8.32;4.90;;;3.80;92.40;;;;;;6122315;23;20002;-80
2023/12/08 01:43:48;;;;;;;8.60;4.80;;;3.90;92.20;;;;;;6096861;23;20052;-80
2023/12/08 01:46:19;;;;;;;8.52;4.20;;;3.90;92.10;;;;;;6122081;23;20006;-81
2023/12/08 01:48:46;;;;;;;6.18;3.78;;;4.00;92.10;;;;;;6122411;23;20407;-81
2023/12/08 01:51:14;;;;;;;8.40;4.32;;;4.00;92.00;;;;;;6099992;23;20009;-81
2023/12/08 01:53:40;;;;;;;7.70;3.72;;;3.90;92.00;;;;;;6126759;23;20002;-81
2023/12/08 01:56:07;;;;;;;7.20;4.20;;;3.90;92.00;;;;;;6127196;23;20093;-82
2023/12/08 01:58:34;;;;;;;7.13;4.25;;;4.00;92.00;;;;;;6126979;23;20017;-80
2023/12/08 02:01:04;;;;;;;7.43;4.13;;;4.00;92.00;;;;;;6127966;23;20376;-81
2023/12/08 02:03:33;;;;;;;7.53;4.40;;;4.00;92.00;;;;;;6101529;23;19998;-80
2023/12/08 02:06:00;;;;;;;6.20;3.63;;;4.00;91.90;;;;;;6101338;23;20006;-81
2023/12/08 02:08:27;;;;;;;6.00;3.55;;;4.00;92.00;;;;;;6126059;23;20005;-81
2023/12/08 02:10:53;;;;;;;6.85;4.03;;;4.00;92.00;;;;;;6125760;23;20002;-80
2023/12/08 02:13:19;;;;;;;5.90;3.58;;;4.10;92.30;;;;;;6101139;23;20002;-83
2023/12/08 02:15:46;;;;;;;7.60;4.68;;;4.10;91.80;;;;;;6101549;23;20099;-81
2023/12/08 02:18:14;;;;;;;6.90;4.10;;;4.00;91.80;;;;;;6125493;23;20005;-80
2023/12/08 02:20:41;;;;;;;9.45;4.85;;;4.00;91.90;;;;;;6126556;23;20004;-79
2023/12/08 02:23:06;;;;;;;6.43;3.83;;;4.00;91.90;;;;;;6100083;23;20292;-81
2023/12/08 02:25:33;;;;;;;4.80;3.30;;;4.00;91.90;;;;;;6100429;23;20005;-81
2023/12/08 02:27:59;;;;;;;5.65;3.25;;;4.10;92.00;;;;;;6102292;23;20299;-79
2023/12/08 02:30:24;;;;;;;7.55;3.53;;;4.20;92.00;;;;;;6101868;23;20006;-79
2023/12/08 02:33:22;;;;;;;4.63;2.92;;;4.20;91.90;;;;;;6102930;23;20006;-81
2023/12/08 02:35:48;;;;;;;6.28;3.60;;;4.20;91.90;;;;;;6129695;23;20010;-80
2023/12/08 02:38:19;;;;;;;6.32;3.67;;;4.20;91.90;;;;;;6126941;23;20502;-79
2023/12/08 02:40:45;;;;;;;4.85;2.92;;;4.20;91.80;;;;;;6128531;23;19998;-81
2023/12/08 02:43:11;;;;;;;7.30;4.00;;;4.20;91.90;;;;;;6127803;23;20121;-81
2023/12/08 02:45:36;;;;;;;6.82;3.97;;;4.10;91.80;;;;;;6101625;23;20006;-78
2023/12/08 02:48:02;;;;;;;6.95;3.92;;;4.00;91.90;;;;;;6127649;23;20056;-81
2023/12/08 02:50:28;;;;;;;6.32;3.63;;;4.00;92.00;;;;;;6103131;23;20089;-79
2023/12/08 02:52:53;;;;;;;6.07;3.58;;;4.00;92.10;;;;;;6127766;23;20013;-81
2023/12/08 02:55:19;;;;;;;7.05;3.42;;;4.00;92.10;;;;;;6128541;23;20001;-81
2023/12/08 02:57:44;;;;;;;5.88;3.10;;;4.10;92.20;;;;;;6100979;23;20113;-81
2023/12/08 03:00:10;;;;;;;5.15;3.00;;;4.10;92.20;;;;;;6102437;23;20053;-81
2023/12/08 03:02:36;;;;;;;7.78;4.05;;;4.10;92.40;;;;;;6102399;23;20005;-80
2023/12/08 03:05:02;;;;;;;6.07;3.47;;;4.00;92.20;;;;;;6101977;23;20006;-81
2023/12/08 03:07:28;;;;;;;4.72;2.92;;;4.00;92.30;;;;;;6101825;23;20029;-80
2023/12/08 03:09:54;;;;;;;4.10;2.67;;;4.00;92.40;;;;;;6101820;23;20280;-81
2023/12/08 03:12:19;;;;;;;6.40;3.70;;;4.00;92.30;;;;;;6129537;23;20367;-81
2023/12/08 03:14:45;;;;;;;4.68;3.00;;;3.90;92.40;;;;;;6112868;23;20014;-80
2023/12/08 03:17:10;;;;;;;6.30;3.45;;;3.80;92.50;;;;;;6110515;23;19998;-82
2023/12/08 03:19:36;;;;;;;7.15;4.22;;;3.80;92.60;;;;;;6128440;23;20005;-80
2023/12/08 03:22:01;;;;;;;6.55;4.22;;;3.80;92.60;;;;;;6102660;23;20033;-81
2023/12/08 03:24:27;;;;;;;5.35;3.38;;;3.70;92.70;;;;;;6101130;23;20014;-80
2023/12/08 03:26:53;;;;;;;8.20;4.25;;;3.70;92.80;;;;;;6128482;23;19997;-81
2023/12/08 03:29:18;;;;;;;7.10;3.65;;;3.70;92.80;;;;;;6128777;23;20029;-81
2023/12/08 03:31:44;;;;;;;6.97;3.97;;;3.70;92.80;;;;;;6103557;23;20002;-80
2023/12/08 03:34:09;;;;;;;7.28;4.30;;;3.70;92.90;;;;;;6102420;23;20604;-81
2023/12/08 03:36:35;;;;;;;9.02;5.47;;;3.60;92.90;;;;;;6101792;23;20010;-80
2023/12/08 03:39:01;;;;;;;7.95;4.60;;;3.60;93.00;;;;;;6127932;23;20432;-81
2023/12/08 03:41:26;;;;;;;8.27;4.32;;;3.60;93.10;;;;;;6101773;23;20012;-80
2023/12/08 03:43:52;;;;;;;6.60;3.90;;;3.60;93.20;;;;;;6127878;23;20077;-83
2023/12/08 03:46:17;;;;;;;8.93;5.20;;;3.60;93.30;;;;;;6101560;23;20068;-82
2023/12/08 03:48:43;;;;;;;9.57;5.43;;;3.60;93.30;;;;;;6102305;23;20002;-80
2023/12/08 03:51:09;;;;;;;8.48;4.90;;;3.60;93.40;;;;;;6102431;23;20010;-82
2023/12/08 03:53:35;;;;;;;8.98;4.93;;;3.50;93.50;;;;;;6101638;23;20333;-79
2023/12/08 03:56:00;;;;;;;10.07;4.72;;;3.50;93.50;;;;;;6102036;23;20377;-81
2023/12/08 03:58:27;;;;;;;7.18;4.15;;;3.60;93.60;;;;;;6127044;23;20006;-80
2023/12/08 04:00:52;;;;;;;7.82;4.65;;;3.60;93.60;;;;;;6129108;23;20081;-83
2023/12/08 04:03:18;;;;;;;8.18;4.53;;;3.60;93.60;;;;;;6101773;23;20482;-80
2023/12/08 04:05:43;;;;;;;7.50;4.10;;;3.60;93.70;;;;;;6127755;23;20056;-80
2023/12/08 04:08:09;;;;;;;8.82;4.72;;;3.60;93.70;;;;;;6101162;23;20012;-80
2023/12/08 04:10:34;;;;;;;8.13;4.60;;;3.60;93.70;;;;;;6101583;23;20019;-81
2023/12/08 04:13:00;;;;;;;7.05;3.78;;;3.60;93.80;;;;;;6101466;23;20077;-82
2023/12/08 04:15:26;;;;;;;8.68;4.63;;;3.70;93.80;;;;;;6128071;23;20010;-81
2023/12/08 04:17:51;;;;;;;7.82;4.38;;;3.70;93.80;;;;;;6101153;23;20006;-81
2023/12/08 04:20:18;;;;;;;8.90;4.72;;;3.70;93.80;;;;;;6101068;23;20002;-82
2023/12/08 04:22:43;;;;;;;6.55;3.70;;;3.70;93.80;;;;;;6095444;23;20006;-79
2023/12/08 04:25:09;;;;;;;6.45;3.53;;;3.70;93.80;;;;;;6097064;23;20002;-81
2023/12/08 04:27:35;;;;;;;6.93;4.00;;;3.70;93.80;;;;;;6073069;23;20064;-82
2023/12/08 04:30:01;;;;;;;7.43;4.35;;;3.70;93.90;;;;;;6100741;23;20436;-80
2023/12/08 04:32:26;;;;;;;8.02;4.68;;;3.70;93.90;;;;;;6102119;23;20014;-78
2023/12/08 04:34:52;;;;;;;8.13;4.90;;;3.70;94.10;;;;;;6100780;23;20003;-82
2023/12/08 04:37:17;;;;;;;7.30;4.18;;;3.70;94.10;;;;;;6100615;23;20018;-80
2023/12/08 04:39:43;;;;;;;7.45;4.10;;;3.70;94.20;;;;;;6074658;23;20433;-82
2023/12/08 04:42:08;;;;;;;5.95;3.30;;;3.70;94.20;;;;;;6074411;23;20071;-80
2023/12/08 04:44:34;;;;;;;6.72;4.28;;;3.80;94.20;;;;;;6075106;23;19998;-80
2023/12/08 04:47:00;;;;;;;6.80;3.90;;;3.80;94.20;;;;;;6100077;23;19998;-82
2023/12/08 04:49:25;;;;;;;6.90;3.63;;;3.80;94.10;;;;;;6073800;23;20081;-79
2023/12/08 04:51:51;;;;;;;5.95;3.60;;;3.80;94.10;;;;;;6074207;23;20449;-81
2023/12/08 04:54:16;;;;;;;5.75;3.50;;;3.80;94.20;;;;;;6075553;23;20006;-81
2023/12/08 04:56:42;;;;;;;7.72;4.35;;;3.80;94.30;;;;;;6100457;23;20034;-81
2023/12/08 04:59:09;;;;;;;6.82;3.65;;;3.80;94.20;;;;;;6074672;23;20352;-82
2023/12/08 05:01:35;;;;;;;7.40;4.32;;;3.80;94.20;;;;;;6074898;23;20014;-80
2023/12/08 05:04:02;;;;;;;6.47;3.78;;;3.80;94.30;;;;;;6098652;23;20025;-82
2023/12/08 05:06:28;;;;;;;6.97;3.58;;;3.80;94.30;;;;;;6085269;23;20034;-80
2023/12/08 05:08:54;;;;;;;7.28;3.70;;;3.80;94.30;;;;;;6111246;23;20329;-82
2023/12/08 05:11:19;;;;;;;6.45;3.53;;;3.80;94.40;;;;;;6075372;23;20002;-82
2023/12/08 05:13:45;;;;;;;8.52;4.63;;;3.80;94.40;;;;;;6099410;23;20037;-83
2023/12/08 05:16:14;;;;;;;7.78;4.20;;;3.70;94.40;;;;;;6073960;23;20007;-82
2023/12/08 05:18:40;;;;;;;7.30;3.95;;;3.80;94.50;;;;;;6074302;23;20022;-82
2023/12/08 05:21:06;;;;;;;7.82;4.70;;;3.70;94.60;;;;;;6073738;23;20002;-83
2023/12/08 05:23:32;;;;;;;8.73;4.22;;;3.80;94.70;;;;;;6114729;23;20009;-83
2023/12/08 05:25:57;;;;;;;9.82;4.97;;;3.80;94.70;;;;;;6101542;23;20001;-82
2023/12/08 05:28:23;;;;;;;9.35;5.10;;;3.70;94.80;;;;;;6101790;23;20106;-82
2023/12/08 05:30:49;;;;;;;9.25;4.85;;;3.70;94.90;;;;;;6100945;23;20010;-81
2023/12/08 05:33:14;;;;;;;10.18;5.60;;;3.70;95.00;;;;;;6100012;23;20052;-80
2023/12/08 05:35:40;;;;;;;9.27;4.70;;;3.60;95.00;;;;;;6099760;23;20014;-79
2023/12/08 05:38:05;;;;;;;10.90;5.30;;;3.70;95.10;;;;;;6120701;23;20106;-79
2023/12/08 05:40:31;;;;;;;8.23;4.60;;;3.70;95.20;;;;;;6121028;23;19998;-77
2023/12/08 05:42:56;;;;;;;8.23;4.38;;;3.80;95.40;;;;;;6096714;23;20033;-78
2023/12/08 05:45:22;;;;;;;9.35;5.03;;;3.70;95.20;;;;;;6121906;23;20010;-78
2023/12/08 05:47:47;;;;;;;8.00;4.43;;;3.70;95.20;;;;;;6095090;23;20014;-78
2023/12/08 05:50:13;;;;;;;7.80;4.38;;;3.80;95.30;;;;;;6121655;23;20077;-78
2023/12/08 05:52:39;;;;;;;9.68;5.13;;;3.80;95.20;;;;;;6122043;23;20407;-76
2023/12/08 05:55:05;;;;;;;8.80;4.25;;;3.80;95.30;;;;;;6120986;23;20061;-79
2023/12/08 05:57:30;;;;;;;7.90;4.50;;;3.80;95.30;;;;;;6093623;23;20452;-79
2023/12/08 05:59:56;;;;;;;7.22;4.25;;;3.80;95.30;;;;;;6101975;23;20016;-80
2023/12/08 06:02:21;;;;;;;7.38;4.00;;;3.80;95.30;;;;;;6128608;23;20008;-78
2023/12/08 06:04:47;;;;;;;7.75;4.03;;;3.90;95.30;;;;;;6104309;23;20013;-79
2023/12/08 06:07:13;;;;;;;7.20;4.10;;;3.90;95.20;;;;;;6102620;23;20017;-81
2023/12/08 06:09:38;;;;;;;8.07;4.30;;;3.90;95.20;;;;;;6103298;23;20010;-82
2023/12/08 06:12:04;;;;;;;8.15;4.57;;;3.90;95.30;;;;;;6130007;23;20028;-81
2023/12/08 06:14:30;;;;;;;7.32;4.13;;;3.90;95.30;;;;;;6103437;23;20006;-82
2023/12/08 06:16:55;;;;;;;7.57;3.97;;;3.90;95.40;;;;;;6104859;23;20025;-78
2023/12/08 06:19:21;;;;;;;5.50;3.60;;;3.90;95.40;;;;;;6104822;23;20002;-82
2023/12/08 06:21:46;;;;;;;6.28;3.28;;;3.90;95.40;;;;;;6103319;23;20077;-82
2023/12/08 06:24:12;;;;;;;6.25;4.00;;;4.00;95.40;;;;;;6102227;23;20085;-80
2023/12/08 06:26:38;;;;;;;8.30;4.80;;;4.00;95.30;;;;;;6128278;23;20057;-81
2023/12/08 06:29:04;;;;;;;8.38;4.43;;;4.00;95.30;;;;;;6102455;23;20009;-81
2023/12/08 06:31:31;;;;;;;7.40;4.28;;;3.90;95.40;;;;;;6102431;23;20014;-82
2023/12/08 06:33:56;;;;;;;8.25;4.47;;;3.90;95.40;;;;;;6129706;23;20017;-79
2023/12/08 06:36:22;;;;;;;8.55;4.60;;;3.90;95.50;;;;;;6102975;23;20006;-83
2023/12/08 06:38:47;;;;;;;10.48;5.45;;;3.90;95.60;;;;;;6103014;23;20057;-83
2023/12/08 06:41:13;;;;;;;7.57;4.07;;;3.80;95.70;;;;;;6102133;23;20368;-79
2023/12/08 06:43:39;;;;;;;10.57;5.00;;;3.90;95.80;;;;;;6123109;23;20060;-81
2023/12/08 06:46:04;;;;;;;6.63;3.47;;;3.90;95.90;;;;;;6100402;23;20164;-80
2023/12/08 06:48:30;;;;;;;6.47;3.58;;;3.90;95.90;;;;;;6099811;23;20013;-81
2023/12/08 06:50:55;;;;;;;6.85;3.90;;;4.00;95.90;;;;;;6099480;23;20396;-80
2023/12/08 06:53:21;;;;;;;8.45;4.70;;;4.00;95.90;;;;;;6125331;23;20431;-79
2023/12/08 06:55:46;;;;;;;7.70;4.05;;;3.90;95.90;;;;;;6125201;23;20453;-81
2023/12/08 06:58:12;;;;;;;6.70;3.75;;;4.00;96.00;;;;;;6099227;23;20436;-79
2023/12/08 07:00:37;;;;;;;9.70;4.70;;;4.00;96.00;;;;;;6099746;23;20010;-82
2023/12/08 07:03:03;;;;;;;5.63;3.42;;;4.00;95.90;;;;;;6102232;23;20005;-83
2023/12/08 07:05:29;;;;;;;9.43;5.57;;;4.10;95.90;;;;;;6128638;23;20462;-83
2023/12/08 07:07:57;;;;;;;8.07;4.10;;;4.10;95.90;;;;;;6128426;23;20006;-83
2023/12/08 07:10:23;;;;;;;7.72;4.13;;;4.20;95.90;;;;;;6101975;23;20041;-83
2023/12/08 07:12:49;;;;;;;8.65;4.47;;;4.20;95.80;;;;;;6102812;23;20012;-81
2023/12/08 07:15:14;;;;;;;8.23;4.63;;;4.10;95.80;;;;;;6102450;23;20006;-80
2023/12/08 07:17:40;;;;;;;8.23;4.65;;;4.10;95.90;;;;;;6100862;23;20024;-80
2023/12/08 07:20:09;;;;;;;8.65;4.88;;;4.20;95.90;;;;;;6127731;23;20002;-80
2023/12/08 07:22:35;;;;;;;10.05;5.38;;;4.20;95.90;;;;;;6101142;23;20022;-80
2023/12/08 07:25:05;;;;;;;9.45;5.55;;;4.20;95.90;;;;;;6128379;23;20064;-81
2023/12/08 07:27:31;;;;;;;9.52;4.85;;;4.20;95.90;;;;;;6100727;23;20652;-78
2023/12/08 07:29:57;;;;;;;8.30;4.68;;;4.20;96.00;;;;;;6129364;23;20027;-79
2023/12/08 07:32:24;;;;;;;9.30;4.63;;;4.10;96.00;;;;;;6108952;23;20026;-82
2023/12/08 07:34:50;;;;;;;7.93;4.38;;;4.10;96.10;;;;;;6107455;23;20010;-80
2023/12/08 07:37:16;;;;;;;7.10;4.10;;;4.10;96.20;;;;;;6133994;23;20001;-82
2023/12/08 07:39:42;;;;;;;7.70;4.55;;;4.20;96.30;;;;;;6107043;23;20025;-81
2023/12/08 07:42:08;;;;;;;7.60;4.30;;;4.20;96.20;;;;;;6109142;23;20041;-81
2023/12/08 07:44:35;;;;;;;6.75;3.90;;;4.20;96.20;;;;;;6109948;23;20002;-81
2023/12/08 07:47:00;;;;;;;7.60;4.50;;;4.30;96.20;;;;;;6105224;23;20029;-80
2023/12/08 07:49:26;;;;;;;7.53;4.30;;;4.20;96.20;;;;;;6110004;23;20544;-80
2023/12/08 07:51:52;;;;;;;7.82;4.03;;;4.20;96.30;;;;;;6110160;23;20483;-83
2023/12/08 07:54:17;;;;;;;8.55;4.32;;;4.20;96.40;;;;;;6109688;23;19998;-83
2023/12/08 07:56:43;;;;;;;7.40;4.05;;;4.20;96.50;;;;;;6109285;23;20009;-80
2023/12/08 07:59:09;;;;;;;7.90;4.28;;;4.30;96.50;;;;;;6105614;23;20254;-82
2023/12/08 08:01:35;;;;;;;8.80;4.63;;;4.30;96.50;;;;;;6135668;23;20077;-80
2023/12/08 08:04:01;;;;;;;15.57;6.10;;;4.40;96.50;;;;;;6109044;23;20479;-82
2023/12/08 08:06:27;;;;;;;9.32;4.65;;;4.40;96.40;;;;;;6133217;23;20029;-81
2023/12/08 08:08:52;;;;;;;6.07;3.53;;;4.60;96.40;;;;;;6108461;23;20538;-83
2023/12/08 08:11:18;;;;;;;7.10;3.97;;;4.40;96.20;;;;;;6109132;23;20553;-79
2023/12/08 08:13:44;;;;;;;11.65;6.03;;;4.60;96.30;;;;;;6135547;23;20002;-81
2023/12/08 08:16:09;;;;;;;9.15;4.57;;;4.60;96.30;;;;;;6135638;23;20030;-80
2023/12/08 08:18:35;;;;;;;8.30;4.35;;;4.60;96.30;;;;;;6139688;23;20029;-81
2023/12/08 08:21:01;;;;;;;12.15;5.90;;;4.60;96.30;;;;;;6117603;23;20010;-84
2023/12/08 08:23:26;;;;;;;9.73;4.35;;;4.60;96.20;;;;;;6115087;23;20021;-80
2023/12/08 08:25:52;;;;;;;6.75;3.92;;;4.60;96.30;;;;;;6110524;23;20010;-83
2023/12/08 08:28:18;;;;;;;7.55;4.18;;;4.50;96.30;;;;;;6109800;23;20044;-80
2023/12/08 08:30:44;;;;;;;8.80;3.63;;;4.50;96.30;;;;;;6109648;23;20006;-82
2023/12/08 08:33:10;;;;;;;6.90;3.92;;;4.50;96.40;;;;;;6110000;23;20035;-82
2023/12/08 08:35:36;;;;;;;5.97;3.35;;;4.50;96.40;;;;;;6110033;23;20010;-82
2023/12/08 08:38:01;;;;;;;5.70;3.50;;;4.60;96.50;;;;;;6136189;23;20005;-79
2023/12/08 08:40:27;;;;;;;9.70;4.78;;;4.60;96.50;;;;;;6111649;23;20458;-82
2023/12/08 08:42:52;;;;;;;9.65;4.85;;;4.60;96.50;;;;;;6136964;23;20009;-82
2023/12/08 08:45:19;;;;;;;10.75;6.35;;;4.80;96.60;;;;;;6110566;23;20002;-80
2023/12/08 08:47:45;;;;;;;8.27;4.90;;;4.70;96.50;;;;;;6112139;23;20006;-83
2023/12/08 08:50:11;;;;;;;7.25;4.15;;;4.70;96.50;;;;;;6111551;23;20006;-81
2023/12/08 08:52:36;;;;;;;7.60;4.03;;;4.80;96.50;;;;;;6111806;23;20070;-82
2023/12/08 08:55:04;;;;;;;6.68;3.45;;;4.80;96.40;;;;;;6137266;23;20001;-80
2023/12/08 08:57:29;;;;;;;8.02;4.40;;;4.90;96.30;;;;;;6134541;23;20005;-83
2023/12/08 08:59:55;;;;;;;6.70;3.67;;;4.90;96.20;;;;;;6105445;23;20451;-81
2023/12/08 09:02:21;;;;;;;11.48;5.93;;;4.90;96.20;;;;;;6108061;23;20013;-83
2023/12/08 09:04:46;;;;;;;9.57;5.60;;;4.90;96.20;;;;;;6105585;23;19998;-80
2023/12/08 09:07:12;;;;;;;7.05;3.78;;;4.90;96.30;;;;;;6106200;23;20030;-79
2023/12/08 09:09:38;;;;;;;7.03;3.70;;;4.90;96.30;;;;;;6102997;23;20056;-83
2023/12/08 09:12:04;;;;;;;6.80;3.92;;;5.00;96.30;;;;;;6099344;23;19998;-82
2023/12/08 09:14:30;;;;;;;6.88;3.53;;;5.00;96.30;;;;;;6099583;23;20056;-81
2023/12/08 09:16:57;;;;;;;5.47;3.33;;;5.10;96.30;;;;;;6128379;23;20010;-83
2023/12/08 09:19:22;;;;;;;6.68;3.80;;;5.00;96.30;;;;;;6103346;23;20428;-79
2023/12/08 09:21:48;;;;;;;8.95;4.75;;;5.10;96.30;;;;;;6101903;23;20013;-82
2023/12/08 09:24:13;;;;;;;7.60;4.00;;;5.10;96.30;;;;;;6097201;23;20010;-80
2023/12/08 09:26:39;;;;;;;7.85;4.50;;;5.10;96.30;;;;;;6073144;23;20041;-82
2023/12/08 09:29:04;;;;;;;6.20;3.40;;;5.10;96.40;;;;;;6098112;23;20002;-81
2023/12/08 09:31:30;;;;;;;6.88;4.05;;;5.10;96.40;;;;;;6072245;23;20006;-79
2023/12/08 09:33:57;;;;;;;7.43;3.92;;;5.10;96.30;;;;;;6072678;23;20041;-81
2023/12/08 09:36:23;;;;;;;10.57;5.82;;;5.20;96.40;;;;;;6072583;23;20007;-80
2023/12/08 09:38:48;;;;;;;9.07;3.92;;;5.20;96.40;;;;;;6070747;23;20009;-81
2023/12/08 09:41:15;;;;;;;7.90;4.88;;;5.20;96.40;;;;;;6071851;23;20041;-79
2023/12/08 09:43:59;;;;;;;8.70;4.80;;;5.20;96.40;;;;;;6097598;23;20081;-81
2023/12/08 09:46:26;;;;;;;8.75;4.15;;;5.20;96.50;;;;;;6070818;23;20006;-78
2023/12/08 09:48:58;;;;;;;7.47;4.13;;;5.20;96.50;;;;;;6068210;23;20007;-79
2023/12/08 09:51:24;;;;;;;6.78;3.88;;;5.20;96.50;;;;;;6094373;23;20528;-82
2023/12/08 09:53:50;;;;;;;7.85;4.43;;;5.30;96.50;;;;;;6093698;23;20033;-81
2023/12/08 09:56:18;;;;;;;6.47;3.55;;;5.20;96.60;;;;;;6094390;23;20045;-80
2023/12/08 09:58:44;;;;;;;9.18;5.38;;;5.30;96.60;;;;;;6068866;23;20006;-80
2023/12/08 10:01:13;;;;;;;7.55;4.80;;;5.30;96.60;;;;;;6068971;23;19998;-80
2023/12/08 10:03:40;;;;;;;7.32;3.58;;;5.30;96.60;;;;;;6068510;23;20086;-80
2023/12/08 10:06:07;;;;;;;7.63;3.90;;;5.40;96.60;;;;;;6095284;23;20344;-80
2023/12/08 10:08:34;;;;;;;6.10;3.38;;;5.40;96.60;;;;;;6094953;23;20011;-81
2023/12/08 10:10:59;;;;;;;7.85;4.82;;;5.50;96.60;;;;;;6069015;23;20324;-79
2023/12/08 10:13:26;;;;;;;8.00;4.47;;;5.50;96.50;;;;;;6072267;23;20026;-83
2023/12/08 10:15:51;;;;;;;6.18;3.60;;;5.50;96.50;;;;;;6075756;23;20045;-82
2023/12/08 10:18:26;;;;;;;10.70;5.25;;;5.50;96.60;;;;;;6074266;23;19998;-83
2023/12/08 10:21:12;;;;;;;9.63;4.40;;;5.50;96.60;;;;;;6074564;23;20281;-80
2023/12/08 10:23:37;;;;;;;14.85;5.80;;;5.50;96.60;;;;;;6115817;23;20036;-82
2023/12/08 10:26:04;;;;;;;9.70;4.78;;;5.60;96.70;;;;;;6102418;23;20006;-82
2023/12/08 10:28:33;;;;;;;10.73;6.10;;;5.60;96.70;;;;;;6102286;23;20023;-80
2023/12/08 10:30:59;;;;;;;10.75;5.47;;;5.60;96.80;;;;;;6101794;23;20013;-81
2023/12/08 10:33:25;;;;;;;9.32;4.75;;;5.60;96.80;;;;;;6102875;23;20006;-83
2023/12/08 10:35:51;;;;;;;8.45;4.35;;;5.60;96.80;;;;;;6102375;23;20034;-83
2023/12/08 10:38:18;;;;;;;6.57;3.47;;;5.70;96.80;;;;;;6102653;23;19998;-84
2023/12/08 10:40:47;;;;;;;7.03;3.58;;;5.90;96.90;;;;;;6127748;23;20002;-82
2023/12/08 10:43:23;;;;;;;8.43;3.72;;;5.80;96.80;;;;;;6102058;23;20344;-80
2023/12/08 10:45:52;;;;;;;14.63;7.10;;;5.80;96.80;;;;;;6127805;23;20084;-81
2023/12/08 10:48:20;;;;;;;10.25;5.20;;;5.90;96.80;;;;;;6129181;23;20030;-83
2023/12/08 10:50:50;;;;;;;10.60;5.30;;;5.80;96.90;;;;;;6103441;23;20052;-83
2023/12/08 10:53:20;;;;;;;10.50;5.15;;;5.90;96.90;;;;;;6130611;23;20025;-83
2023/12/08 10:56:04;;;;;;;10.82;5.05;;;5.90;97.00;;;;;;6128903;23;20009;-82
2023/12/08 10:58:33;;;;;;;11.23;5.15;;;5.90;97.00;;;;;;6102429;23;20057;-82
2023/12/08 11:01:01;;;;;;;6.70;3.67;;;5.90;96.90;;;;;;6103281;23;20141;-80
2023/12/08 11:03:33;;;;;;;8.70;4.30;;;5.90;96.90;;;;;;6128607;23;20006;-82
2023/12/08 11:06:06;;;;;;;6.88;3.92;;;6.00;97.00;;;;;;6103072;23;20093;-81
2023/12/08 11:08:34;;;;;;;9.60;4.93;;;6.00;97.00;;;;;;6102641;23;20395;-82
2023/12/08 11:11:03;;;;;;;13.38;6.10;;;6.00;96.90;;;;;;6128537;23;20404;-82
2023/12/08 11:13:30;;;;;;;21.85;8.40;;;6.00;96.90;;;;;;6128769;23;20005;-82
2023/12/08 11:16:35;;;;;;;15.48;7.32;;;6.00;97.30;;;;;;6102280;23;20085;-81
2023/12/08 11:19:01;;;;;;;30.73;8.23;;;6.00;97.20;;;;;;6044348;23;20013;-84
2023/12/08 11:21:27;;;;;;;11.80;6.07;;;6.10;97.30;;;;;;6102278;23;20068;-81
2023/12/08 11:23:54;;;;;;;8.32;4.32;;;6.10;97.30;;;;;;6102510;23;20006;-83
2023/12/08 11:26:41;;;;;;;14.27;7.78;;;6.10;97.30;;;;;;6101428;23;20040;-83
2023/12/08 11:29:35;;;;;;;10.85;5.20;;;6.10;97.40;;;;;;6101940;23;20006;-81
2023/12/08 11:32:12;;;;;;;17.42;6.68;;;6.10;97.50;;;;;;6101543;23;20348;-83
2023/12/08 11:34:45;;;;;;;26.48;8.65;;;6.20;97.40;;;;;;6101573;23;20002;-83
2023/12/08 11:37:11;;;;;;;15.98;7.10;;;6.20;97.40;;;;;;6101304;23;20029;-80
2023/12/08 11:39:46;;;;;;;15.43;7.20;;;6.10;97.50;;;;;;6099995;23;20093;-82
2023/12/08 11:42:20;;;;;;;14.82;7.22;;;6.20;97.60;;;;;;6102003;23;20002;-80
2023/12/08 11:44:48;;;;;;;14.32;6.15;;;6.20;97.60;;;;;;6128108;23;20002;-83
2023/12/08 11:47:15;;;;;;;22.02;8.43;;;6.20;97.70;;;;;;6101270;23;20008;-82
2023/12/08 11:49:47;;;;;;;15.43;7.45;;;6.20;97.70;;;;;;6102038;23;20063;-81
2023/12/08 11:52:20;;;;;;;16.08;5.88;;;6.20;97.90;;;;;;6101768;23;20049;-83
2023/12/08 11:55:20;;;;;;;12.38;5.78;;;6.30;97.90;;;;;;6106847;23;20009;-84
2023/12/08 11:58:05;;;;;;;13.77;6.13;;;6.40;97.90;;;;;;6103858;23;20406;-83
2023/12/08 12:00:34;;;;;;;11.77;5.95;;;6.40;97.90;;;;;;6103374;23;20005;-83
2023/12/08 12:03:00;;;;;;;8.45;4.10;;;6.50;97.90;;;;;;6130010;23;19998;-84
2023/12/08 12:05:26;;;;;;;7.93;3.72;;;6.60;97.90;;;;;;6103151;23;20578;-80
2023/12/08 12:07:53;;;;;;;10.40;4.15;;;6.60;98.00;;;;;;6102658;23;20002;-84
2023/12/08 12:10:28;;;;;;;10.82;4.95;;;6.60;97.70;;;;;;6129767;23;20029;-80
2023/12/08 12:13:04;;;;;;;9.73;4.53;;;6.60;97.70;;;;;;6102189;23;20001;-80
2023/12/08 12:15:33;;;;;;;10.75;5.55;;;6.70;97.70;;;;;;6102052;23;20017;-83
2023/12/08 12:17:59;;;;;;;11.88;5.10;;;6.70;97.70;;;;;;6101650;23;20100;-82
2023/12/08 12:20:28;;;;;;;11.45;5.47;;;6.70;97.80;;;;;;6102423;23;20005;-82
2023/12/08 12:22:53;;;;;;;13.95;5.53;;;6.70;97.80;;;;;;6101830;23;20006;-80
2023/12/08 12:25:19;;;;;;;17.73;7.40;;;6.80;97.90;;;;;;6102561;23;20498;-82
2023/12/08 12:27:49;;;;;;;15.38;6.75;;;6.80;97.90;;;;;;6101126;23;20013;-83
2023/12/08 12:30:16;;;;;;;24.80;8.00;;;6.80;97.90;;;;;;6127739;23;20002;-83
2023/12/08 12:32:41;;;;;;;20.35;7.90;;;6.80;97.90;;;;;;6100693;23;20060;-83
2023/12/08 12:35:08;;;;;;;22.02;8.10;;;6.80;98.10;;;;;;6101832;23;20396;-82
2023/12/08 12:37:34;;;;;;;14.43;6.25;;;6.80;98.20;;;;;;6100949;23;20128;-83
2023/12/08 12:39:59;;;;;;;17.58;7.95;;;6.90;98.40;;;;;;6101444;23;20088;-83
2023/12/08 12:42:25;;;;;;;19.23;6.50;;;6.90;98.30;;;;;;6127083;23;20005;-82
2023/12/08 12:44:52;;;;;;;14.98;6.25;;;7.00;98.40;;;;;;6101860;23;20020;-84
2023/12/08 12:47:22;;;;;;;25.08;9.05;;;7.00;98.40;;;;;;6100914;23;19998;-83
2023/12/08 12:50:06;;;;;;;14.98;6.82;;;7.00;98.50;;;;;;6100792;23;20047;-82
2023/12/08 12:52:36;;;;;;;19.75;8.30;;;7.00;98.60;;;;;;6127640;23;20403;-80
2023/12/08 12:55:22;;;;;;;11.73;5.53;;;7.00;98.80;;;;;;6101272;23;20013;-83